sensor_id;sensor_type;location;lat;lon;timestamp;temperature;humidity
1546;DHT22;766;51.502;9.752;2022-09-27T00:01:08;9.00;99.90
1546;DHT22;766;51.502;9.752;2022-09-27T00:03:39;9.00;99.90
1546;DHT22;766;51.502;9.752;2022-09-27T00:06:11;9.00;99.90
1546;DHT22;766;51.502;9.752;2022-09-27T00:08:40;9.00;99.90
1546;DHT22;766;51.502;9.752;2022-09-27T00:11:17;9.00;99.90
1546;DHT22;766;51.502;9.752;2022-09-27T00:13:47;9.10;99.90
1546;DHT22;766;51.502;9.752;2022-09-27T00:16:16;9.00;99.90
1546;DHT22;766;51.502;9.752;2022-09-27T00:18:47;9.00;99.90
1546;DHT22;766;51.502;9.752;2022-09-27T00:21:16;9.00;99.90
1546;DHT22;766;51.502;9.752;2022-09-27T00:23:46;9.10;99.90
1546;DHT22;766;51.502;9.752;2022-09-27T00:26:15;9.00;99.90
1546;DHT22;766;51.502;9.752;2022-09-27T00:28:44;9.10;99.90
1546;DHT22;766;51.502;9.752;2022-09-27T00:31:18;9.10;99.90
1546;DHT22;766;51.502;9.752;2022-09-27T00:33:51;9.10;99.90
1546;DHT22;766;51.502;9.752;2022-09-27T00:36:22;9.10;99.90
1546;DHT22;766;51.502;9.752;2022-09-27T00:38:52;9.10;99.90
1546;DHT22;766;51.502;9.752;2022-09-27T00:41:22;9.20;99.90
1546;DHT22;766;51.502;9.752;2022-09-27T00:43:53;9.10;99.90
1546;DHT22;766;51.502;9.752;2022-09-27T00:46:27;9.10;99.90
1546;DHT22;766;51.502;9.752;2022-09-27T00:49:07;9.10;99.90
1546;DHT22;766;51.502;9.752;2022-09-27T00:51:42;9.20;99.90
1546;DHT22;766;51.502;9.752;2022-09-27T00:54:14;9.20;99.90
1546;DHT22;766;51.502;9.752;2022-09-27T00:56:45;9.10;99.90
1546;DHT22;766;51.502;9.752;2022-09-27T00:59:21;9.10;99.90
1546;DHT22;766;51.502;9.752;2022-09-27T01:01:52;9.20;99.90
1546;DHT22;766;51.502;9.752;2022-09-27T01:04:26;9.10;99.90
1546;DHT22;766;51.502;9.752;2022-09-27T01:06:56;9.20;99.90
1546;DHT22;766;51.502;9.752;2022-09-27T01:09:26;9.20;99.90
1546;DHT22;766;51.502;9.752;2022-09-27T01:12:03;9.20;99.90
1546;DHT22;766;51.502;9.752;2022-09-27T01:14:45;9.20;99.90
1546;DHT22;766;51.502;9.752;2022-09-27T01:17:29;9.20;99.90
1546;DHT22;766;51.502;9.752;2022-09-27T01:20:26;9.10;99.90
1546;DHT22;766;51.502;9.752;2022-09-27T01:23:16;9.20;99.90
1546;DHT22;766;51.502;9.752;2022-09-27T01:25:59;9.10;99.90
1546;DHT22;766;51.502;9.752;2022-09-27T01:28:46;9.10;99.90
1546;DHT22;766;51.502;9.752;2022-09-27T01:31:24;9.20;99.90
1546;DHT22;766;51.502;9.752;2022-09-27T01:34:00;9.20;99.90
1546;DHT22;766;51.502;9.752;2022-09-27T01:36:41;9.20;99.90
1546;DHT22;766;51.502;9.752;2022-09-27T01:39:21;9.10;99.90
1546;DHT22;766;51.502;9.752;2022-09-27T01:42:00;9.10;99.90
1546;DHT22;766;51.502;9.752;2022-09-27T01:44:33;9.10;99.90
1546;DHT22;766;51.502;9.752;2022-09-27T01:47:09;9.10;99.90
1546;DHT22;766;51.502;9.752;2022-09-27T01:49:44;9.10;99.90
1546;DHT22;766;51.502;9.752;2022-09-27T01:52:19;9.10;99.90
1546;DHT22;766;51.502;9.752;2022-09-27T01:54:53;9.10;99.90
1546;DHT22;766;51.502;9.752;2022-09-27T01:57:26;9.10;99.90
1546;DHT22;766;51.502;9.752;2022-09-27T02:00:00;9.10;99.90
1546;DHT22;766;51.502;9.752;2022-09-27T02:02:35;9.10;99.90
1546;DHT22;766;51.502;9.752;2022-09-27T02:05:10;9.10;99.90
1546;DHT22;766;51.502;9.752;2022-09-27T02:07:47;9.10;99.90
1546;DHT22;766;51.502;9.752;2022-09-27T02:10:20;9.10;99.90
1546;DHT22;766;51.502;9.752;2022-09-27T02:13:01;9.00;99.90
1546;DHT22;766;51.502;9.752;2022-09-27T02:15:40;9.10;99.90
1546;DHT22;766;51.502;9.752;2022-09-27T02:18:17;9.10;99.90
1546;DHT22;766;51.502;9.752;2022-09-27T02:20:50;9.10;99.90
1546;DHT22;766;51.502;9.752;2022-09-27T02:23:25;9.10;99.90
1546;DHT22;766;51.502;9.752;2022-09-27T02:25:58;9.10;99.90
1546;DHT22;766;51.502;9.752;2022-09-27T02:28:30;9.10;99.90
1546;DHT22;766;51.502;9.752;2022-09-27T02:31:01;9.10;99.90
1546;DHT22;766;51.502;9.752;2022-09-27T02:33:35;9.10;99.90
1546;DHT22;766;51.502;9.752;2022-09-27T02:36:05;9.10;99.90
1546;DHT22;766;51.502;9.752;2022-09-27T02:38:35;9.00;99.90
1546;DHT22;766;51.502;9.752;2022-09-27T02:41:13;9.10;99.90
1546;DHT22;766;51.502;9.752;2022-09-27T02:43:43;9.00;99.90
1546;DHT22;766;51.502;9.752;2022-09-27T02:46:24;9.10;99.90
1546;DHT22;766;51.502;9.752;2022-09-27T02:49:03;9.00;99.90
1546;DHT22;766;51.502;9.752;2022-09-27T02:51:49;9.00;99.90
1546;DHT22;766;51.502;9.752;2022-09-27T02:54:28;9.10;99.90
1546;DHT22;766;51.502;9.752;2022-09-27T02:57:05;9.10;99.90
1546;DHT22;766;51.502;9.752;2022-09-27T02:59:48;9.10;99.90
1546;DHT22;766;51.502;9.752;2022-09-27T03:02:23;9.10;99.90
1546;DHT22;766;51.502;9.752;2022-09-27T03:04:59;9.10;99.90
1546;DHT22;766;51.502;9.752;2022-09-27T03:07:29;9.10;99.90
1546;DHT22;766;51.502;9.752;2022-09-27T03:09:58;9.10;99.90
1546;DHT22;766;51.502;9.752;2022-09-27T03:12:27;9.10;99.90
1546;DHT22;766;51.502;9.752;2022-09-27T03:14:58;9.10;99.90
1546;DHT22;766;51.502;9.752;2022-09-27T03:17:27;9.10;99.90
1546;DHT22;766;51.502;9.752;2022-09-27T03:19:57;9.10;99.90
1546;DHT22;766;51.502;9.752;2022-09-27T03:22:25;9.00;99.90
1546;DHT22;766;51.502;9.752;2022-09-27T03:24:54;9.00;99.90
1546;DHT22;766;51.502;9.752;2022-09-27T03:27:23;9.10;99.90
1546;DHT22;766;51.502;9.752;2022-09-27T03:29:52;9.10;99.90
1546;DHT22;766;51.502;9.752;2022-09-27T03:32:20;9.10;99.90
1546;DHT22;766;51.502;9.752;2022-09-27T03:34:51;9.00;99.90
1546;DHT22;766;51.502;9.752;2022-09-27T03:37:26;9.00;99.90
1546;DHT22;766;51.502;9.752;2022-09-27T03:39:56;9.00;99.90
1546;DHT22;766;51.502;9.752;2022-09-27T03:42:25;9.00;99.90
1546;DHT22;766;51.502;9.752;2022-09-27T03:44:53;9.00;99.90
1546;DHT22;766;51.502;9.752;2022-09-27T03:47:22;9.00;99.90
1546;DHT22;766;51.502;9.752;2022-09-27T03:49:50;9.10;99.90
1546;DHT22;766;51.502;9.752;2022-09-27T03:52:21;9.10;99.90
1546;DHT22;766;51.502;9.752;2022-09-27T03:54:50;9.00;99.90
1546;DHT22;766;51.502;9.752;2022-09-27T03:57:22;9.00;99.90
1546;DHT22;766;51.502;9.752;2022-09-27T03:59:50;9.00;99.90
1546;DHT22;766;51.502;9.752;2022-09-27T04:02:19;9.00;99.90
1546;DHT22;766;51.502;9.752;2022-09-27T04:04:47;9.00;99.90
1546;DHT22;766;51.502;9.752;2022-09-27T04:07:16;9.00;99.90
1546;DHT22;766;51.502;9.752;2022-09-27T04:09:45;9.00;99.90
1546;DHT22;766;51.502;9.752;2022-09-27T04:12:15;9.00;99.90
1546;DHT22;766;51.502;9.752;2022-09-27T04:14:43;9.00;99.90
1546;DHT22;766;51.502;9.752;2022-09-27T04:17:15;9.00;99.90
1546;DHT22;766;51.502;9.752;2022-09-27T04:19:43;8.90;99.90
1546;DHT22;766;51.502;9.752;2022-09-27T04:22:11;9.00;99.90
1546;DHT22;766;51.502;9.752;2022-09-27T04:24:41;8.90;99.90
1546;DHT22;766;51.502;9.752;2022-09-27T04:27:09;8.90;99.90
1546;DHT22;766;51.502;9.752;2022-09-27T04:29:39;9.00;99.90
1546;DHT22;766;51.502;9.752;2022-09-27T04:32:11;9.00;99.90
1546;DHT22;766;51.502;9.752;2022-09-27T04:34:40;9.00;99.90
1546;DHT22;766;51.502;9.752;2022-09-27T04:37:26;9.10;99.90
1546;DHT22;766;51.502;9.752;2022-09-27T04:39:54;9.10;99.90
1546;DHT22;766;51.502;9.752;2022-09-27T04:42:23;9.10;99.90
1546;DHT22;766;51.502;9.752;2022-09-27T04:44:59;9.10;99.90
1546;DHT22;766;51.502;9.752;2022-09-27T04:47:28;9.10;99.90
1546;DHT22;766;51.502;9.752;2022-09-27T04:49:57;9.10;99.90
1546;DHT22;766;51.502;9.752;2022-09-27T04:52:25;9.10;99.90
1546;DHT22;766;51.502;9.752;2022-09-27T04:54:54;9.10;99.90
1546;DHT22;766;51.502;9.752;2022-09-27T04:57:23;9.10;99.90
1546;DHT22;766;51.502;9.752;2022-09-27T04:59:52;9.00;99.90
1546;DHT22;766;51.502;9.752;2022-09-27T05:02:22;9.00;99.90
1546;DHT22;766;51.502;9.752;2022-09-27T05:04:50;9.00;99.90
1546;DHT22;766;51.502;9.752;2022-09-27T05:07:19;9.00;99.90
1546;DHT22;766;51.502;9.752;2022-09-27T05:09:47;9.00;99.90
1546;DHT22;766;51.502;9.752;2022-09-27T05:12:16;9.00;99.90
1546;DHT22;766;51.502;9.752;2022-09-27T05:14:45;9.00;99.90
1546;DHT22;766;51.502;9.752;2022-09-27T05:17:13;9.00;99.90
1546;DHT22;766;51.502;9.752;2022-09-27T05:19:43;9.00;99.90
1546;DHT22;766;51.502;9.752;2022-09-27T05:22:12;8.90;99.90
1546;DHT22;766;51.502;9.752;2022-09-27T05:24:41;9.00;99.90
1546;DHT22;766;51.502;9.752;2022-09-27T05:27:12;9.10;99.90
1546;DHT22;766;51.502;9.752;2022-09-27T05:29:45;9.00;99.90
1546;DHT22;766;51.502;9.752;2022-09-27T05:32:14;9.00;99.90
1546;DHT22;766;51.502;9.752;2022-09-27T05:34:44;9.00;99.90
1546;DHT22;766;51.502;9.752;2022-09-27T05:37:12;9.00;99.90
1546;DHT22;766;51.502;9.752;2022-09-27T05:39:40;9.00;99.90
1546;DHT22;766;51.502;9.752;2022-09-27T05:42:12;9.00;99.90
1546;DHT22;766;51.502;9.752;2022-09-27T05:44:41;9.00;99.90
1546;DHT22;766;51.502;9.752;2022-09-27T05:47:15;9.00;99.90
1546;DHT22;766;51.502;9.752;2022-09-27T05:49:44;9.10;99.90
1546;DHT22;766;51.502;9.752;2022-09-27T05:52:13;9.00;99.90
1546;DHT22;766;51.502;9.752;2022-09-27T05:54:43;9.00;99.90
1546;DHT22;766;51.502;9.752;2022-09-27T05:57:12;9.00;99.90
1546;DHT22;766;51.502;9.752;2022-09-27T05:59:41;9.00;99.90
1546;DHT22;766;51.502;9.752;2022-09-27T06:02:10;9.10;99.90
1546;DHT22;766;51.502;9.752;2022-09-27T06:04:38;9.10;99.90
1546;DHT22;766;51.502;9.752;2022-09-27T06:07:09;9.10;99.90
1546;DHT22;766;51.502;9.752;2022-09-27T06:09:38;9.10;99.90
1546;DHT22;766;51.502;9.752;2022-09-27T06:12:09;9.10;99.90
1546;DHT22;766;51.502;9.752;2022-09-27T06:14:38;9.10;99.90
1546;DHT22;766;51.502;9.752;2022-09-27T06:17:06;9.10;99.90
1546;DHT22;766;51.502;9.752;2022-09-27T06:19:35;9.10;99.90
1546;DHT22;766;51.502;9.752;2022-09-27T06:22:04;9.10;99.90
1546;DHT22;766;51.502;9.752;2022-09-27T06:24:36;9.10;99.90
1546;DHT22;766;51.502;9.752;2022-09-27T06:27:04;9.10;99.90
1546;DHT22;766;51.502;9.752;2022-09-27T06:29:36;9.10;99.90
1546;DHT22;766;51.502;9.752;2022-09-27T06:32:05;9.10;99.90
1546;DHT22;766;51.502;9.752;2022-09-27T06:34:34;9.10;99.90
1546;DHT22;766;51.502;9.752;2022-09-27T06:37:02;9.10;99.90
1546;DHT22;766;51.502;9.752;2022-09-27T06:39:31;9.10;99.90
1546;DHT22;766;51.502;9.752;2022-09-27T06:42:02;9.10;99.90
1546;DHT22;766;51.502;9.752;2022-09-27T06:44:30;9.10;99.90
1546;DHT22;766;51.502;9.752;2022-09-27T06:46:59;9.00;99.90
1546;DHT22;766;51.502;9.752;2022-09-27T06:49:27;9.00;99.90
1546;DHT22;766;51.502;9.752;2022-09-27T06:51:57;9.00;99.90
1546;DHT22;766;51.502;9.752;2022-09-27T06:54:26;9.00;99.90
1546;DHT22;766;51.502;9.752;2022-09-27T06:56:57;9.00;99.90
1546;DHT22;766;51.502;9.752;2022-09-27T06:59:30;9.10;99.90
1546;DHT22;766;51.502;9.752;2022-09-27T07:02:15;9.10;99.90
1546;DHT22;766;51.502;9.752;2022-09-27T07:04:44;9.00;99.90
1546;DHT22;766;51.502;9.752;2022-09-27T07:07:12;9.00;99.90
1546;DHT22;766;51.502;9.752;2022-09-27T07:09:41;9.10;99.90
1546;DHT22;766;51.502;9.752;2022-09-27T07:12:10;9.00;99.90
1546;DHT22;766;51.502;9.752;2022-09-27T07:14:42;9.10;99.90
1546;DHT22;766;51.502;9.752;2022-09-27T07:17:12;9.10;99.90
1546;DHT22;766;51.502;9.752;2022-09-27T07:19:40;9.20;99.90
1546;DHT22;766;51.502;9.752;2022-09-27T07:22:09;9.30;99.90
1546;DHT22;766;51.502;9.752;2022-09-27T07:24:43;9.40;99.90
1546;DHT22;766;51.502;9.752;2022-09-27T07:27:13;9.40;99.90
1546;DHT22;766;51.502;9.752;2022-09-27T07:29:47;9.50;99.90
1546;DHT22;766;51.502;9.752;2022-09-27T07:32:23;9.40;99.90
1546;DHT22;766;51.502;9.752;2022-09-27T07:34:51;9.40;99.90
1546;DHT22;766;51.502;9.752;2022-09-27T07:37:20;9.30;99.90
1546;DHT22;766;51.502;9.752;2022-09-27T07:39:49;9.30;99.90
1546;DHT22;766;51.502;9.752;2022-09-27T07:42:17;9.30;99.90
1546;DHT22;766;51.502;9.752;2022-09-27T07:44:48;9.30;99.90
1546;DHT22;766;51.502;9.752;2022-09-27T07:47:16;9.30;99.90
1546;DHT22;766;51.502;9.752;2022-09-27T07:49:46;9.30;99.90
1546;DHT22;766;51.502;9.752;2022-09-27T07:52:14;9.40;99.90
1546;DHT22;766;51.502;9.752;2022-09-27T07:54:42;9.30;99.90
1546;DHT22;766;51.502;9.752;2022-09-27T07:57:11;9.30;99.90
1546;DHT22;766;51.502;9.752;2022-09-27T07:59:40;9.30;99.90
1546;DHT22;766;51.502;9.752;2022-09-27T08:02:13;9.30;99.90
1546;DHT22;766;51.502;9.752;2022-09-27T08:04:42;9.50;99.90
1546;DHT22;766;51.502;9.752;2022-09-27T08:07:13;9.70;99.90
1546;DHT22;766;51.502;9.752;2022-09-27T08:09:42;10.00;99.90
1546;DHT22;766;51.502;9.752;2022-09-27T08:12:11;10.10;99.90
1546;DHT22;766;51.502;9.752;2022-09-27T08:14:40;10.10;99.90
1546;DHT22;766;51.502;9.752;2022-09-27T08:17:15;9.90;99.90
1546;DHT22;766;51.502;9.752;2022-09-27T08:19:47;9.70;99.90
1546;DHT22;766;51.502;9.752;2022-09-27T08:22:16;9.70;99.90
1546;DHT22;766;51.502;9.752;2022-09-27T08:24:47;9.70;99.90
1546;DHT22;766;51.502;9.752;2022-09-27T08:27:16;9.80;99.90
1546;DHT22;766;51.502;9.752;2022-09-27T08:29:44;10.00;99.90
1546;DHT22;766;51.502;9.752;2022-09-27T08:32:15;10.10;99.90
1546;DHT22;766;51.502;9.752;2022-09-27T08:34:49;10.30;99.90
1546;DHT22;766;51.502;9.752;2022-09-27T08:37:17;10.30;99.90
1546;DHT22;766;51.502;9.752;2022-09-27T08:39:46;10.40;99.90
1546;DHT22;766;51.502;9.752;2022-09-27T08:42:23;10.40;99.90
1546;DHT22;766;51.502;9.752;2022-09-27T08:44:58;10.50;99.90
1546;DHT22;766;51.502;9.752;2022-09-27T08:47:35;10.40;99.90
1546;DHT22;766;51.502;9.752;2022-09-27T08:50:16;10.50;99.90
1546;DHT22;766;51.502;9.752;2022-09-27T08:52:49;10.50;99.90
1546;DHT22;766;51.502;9.752;2022-09-27T08:55:28;10.50;99.90
1546;DHT22;766;51.502;9.752;2022-09-27T08:57:58;10.70;99.90
1546;DHT22;766;51.502;9.752;2022-09-27T09:00:28;11.30;99.90
1546;DHT22;766;51.502;9.752;2022-09-27T09:03:00;11.40;99.90
1546;DHT22;766;51.502;9.752;2022-09-27T09:05:34;11.60;99.90
1546;DHT22;766;51.502;9.752;2022-09-27T09:08:20;11.80;99.90
1546;DHT22;766;51.502;9.752;2022-09-27T09:10:53;11.90;99.90
1546;DHT22;766;51.502;9.752;2022-09-27T09:13:57;11.80;99.90
1546;DHT22;766;51.502;9.752;2022-09-27T09:16:44;11.70;99.90
1546;DHT22;766;51.502;9.752;2022-09-27T09:19:37;11.40;99.90
1546;DHT22;766;51.502;9.752;2022-09-27T09:22:19;11.40;99.90
1546;DHT22;766;51.502;9.752;2022-09-27T09:25:11;11.60;99.90
1546;DHT22;766;51.502;9.752;2022-09-27T09:27:53;11.70;99.90
1546;DHT22;766;51.502;9.752;2022-09-27T09:30:34;11.80;99.90
1546;DHT22;766;51.502;9.752;2022-09-27T09:33:18;11.50;99.90
1546;DHT22;766;51.502;9.752;2022-09-27T09:35:52;11.50;99.90
1546;DHT22;766;51.502;9.752;2022-09-27T09:38:34;11.40;99.90
1546;DHT22;766;51.502;9.752;2022-09-27T09:41:08;11.30;99.90
1546;DHT22;766;51.502;9.752;2022-09-27T09:43:44;11.60;99.90
1546;DHT22;766;51.502;9.752;2022-09-27T09:46:19;11.70;99.90
1546;DHT22;766;51.502;9.752;2022-09-27T09:48:52;11.80;99.90
1546;DHT22;766;51.502;9.752;2022-09-27T09:51:28;11.90;99.90
1546;DHT22;766;51.502;9.752;2022-09-27T09:54:04;11.90;99.90
1546;DHT22;766;51.502;9.752;2022-09-27T09:56:38;12.00;99.90
1546;DHT22;766;51.502;9.752;2022-09-27T09:59:13;11.90;99.90
1546;DHT22;766;51.502;9.752;2022-09-27T10:01:44;12.10;99.90
1546;DHT22;766;51.502;9.752;2022-09-27T10:04:20;12.40;99.90
1546;DHT22;766;51.502;9.752;2022-09-27T10:06:51;12.80;99.90
1546;DHT22;766;51.502;9.752;2022-09-27T10:09:23;12.80;99.90
1546;DHT22;766;51.502;9.752;2022-09-27T10:11:52;12.60;99.90
1546;DHT22;766;51.502;9.752;2022-09-27T10:14:21;12.90;99.90
1546;DHT22;766;51.502;9.752;2022-09-27T10:16:54;12.80;99.90
1546;DHT22;766;51.502;9.752;2022-09-27T10:19:28;12.80;99.90
1546;DHT22;766;51.502;9.752;2022-09-27T10:22:02;13.00;99.90
1546;DHT22;766;51.502;9.752;2022-09-27T10:24:54;13.10;99.90
1546;DHT22;766;51.502;9.752;2022-09-27T10:27:24;12.80;99.90
1546;DHT22;766;51.502;9.752;2022-09-27T10:29:58;12.70;99.90
1546;DHT22;766;51.502;9.752;2022-09-27T10:32:29;12.60;99.90
1546;DHT22;766;51.502;9.752;2022-09-27T10:35:20;12.40;99.90
1546;DHT22;766;51.502;9.752;2022-09-27T10:37:51;12.20;99.90
1546;DHT22;766;51.502;9.752;2022-09-27T10:40:28;11.90;99.90
1546;DHT22;766;51.502;9.752;2022-09-27T10:42:57;11.80;99.90
1546;DHT22;766;51.502;9.752;2022-09-27T10:45:28;11.70;99.90
1546;DHT22;766;51.502;9.752;2022-09-27T10:47:58;11.20;99.90
1546;DHT22;766;51.502;9.752;2022-09-27T10:50:29;11.10;99.90
1546;DHT22;766;51.502;9.752;2022-09-27T10:53:20;11.10;99.90
1546;DHT22;766;51.502;9.752;2022-09-27T10:55:50;11.10;99.90
1546;DHT22;766;51.502;9.752;2022-09-27T10:58:24;11.10;99.90
1546;DHT22;766;51.502;9.752;2022-09-27T11:00:56;11.10;99.90
1546;DHT22;766;51.502;9.752;2022-09-27T11:03:28;10.90;99.90
1546;DHT22;766;51.502;9.752;2022-09-27T11:05:57;11.00;99.90
1546;DHT22;766;51.502;9.752;2022-09-27T11:08:32;11.10;99.90
1546;DHT22;766;51.502;9.752;2022-09-27T11:11:12;11.10;99.90
1546;DHT22;766;51.502;9.752;2022-09-27T11:13:57;11.20;99.90
1546;DHT22;766;51.502;9.752;2022-09-27T11:16:37;11.10;99.90
1546;DHT22;766;51.502;9.752;2022-09-27T11:19:21;11.20;99.90
1546;DHT22;766;51.502;9.752;2022-09-27T11:21:56;11.30;99.90
1546;DHT22;766;51.502;9.752;2022-09-27T11:24:54;11.70;99.90
1546;DHT22;766;51.502;9.752;2022-09-27T11:27:33;11.80;99.90
1546;DHT22;766;51.502;9.752;2022-09-27T11:30:10;11.80;99.90
1546;DHT22;766;51.502;9.752;2022-09-27T11:32:58;11.60;99.90
1546;DHT22;766;51.502;9.752;2022-09-27T11:35:52;11.50;99.90
1546;DHT22;766;51.502;9.752;2022-09-27T11:38:28;11.10;99.90
1546;DHT22;766;51.502;9.752;2022-09-27T11:41:29;11.10;99.90
1546;DHT22;766;51.502;9.752;2022-09-27T11:44:21;11.60;99.90
1546;DHT22;766;51.502;9.752;2022-09-27T11:47:00;12.30;99.90
1546;DHT22;766;51.502;9.752;2022-09-27T11:49:50;12.80;99.90
1546;DHT22;766;51.502;9.752;2022-09-27T11:52:29;13.10;99.90
1546;DHT22;766;51.502;9.752;2022-09-27T11:55:13;13.30;99.90
1546;DHT22;766;51.502;9.752;2022-09-27T11:57:47;13.50;99.90
1546;DHT22;766;51.502;9.752;2022-09-27T12:00:21;13.60;99.90
1546;DHT22;766;51.502;9.752;2022-09-27T12:03:29;13.70;99.90
1546;DHT22;766;51.502;9.752;2022-09-27T12:06:06;14.20;99.90
1546;DHT22;766;51.502;9.752;2022-09-27T12:08:59;14.70;99.90
1546;DHT22;766;51.502;9.752;2022-09-27T12:11:32;14.90;99.90
1546;DHT22;766;51.502;9.752;2022-09-27T12:14:08;15.30;99.90
1546;DHT22;766;51.502;9.752;2022-09-27T12:16:39;15.20;99.90
1546;DHT22;766;51.502;9.752;2022-09-27T12:19:14;14.40;99.90
1546;DHT22;766;51.502;9.752;2022-09-27T12:21:45;14.20;99.90
1546;DHT22;766;51.502;9.752;2022-09-27T12:24:19;13.80;99.90
1546;DHT22;766;51.502;9.752;2022-09-27T12:26:49;13.30;99.90
1546;DHT22;766;51.502;9.752;2022-09-27T12:29:24;13.20;99.90
1546;DHT22;766;51.502;9.752;2022-09-27T12:31:58;13.20;99.90
1546;DHT22;766;51.502;9.752;2022-09-27T12:34:35;13.20;99.90
1546;DHT22;766;51.502;9.752;2022-09-27T12:37:11;13.00;99.90
1546;DHT22;766;51.502;9.752;2022-09-27T12:39:49;13.00;99.90
1546;DHT22;766;51.502;9.752;2022-09-27T12:42:21;13.30;99.90
1546;DHT22;766;51.502;9.752;2022-09-27T12:44:52;13.30;99.90
1546;DHT22;766;51.502;9.752;2022-09-27T12:50:16;13.30;99.90
1546;DHT22;766;51.502;9.752;2022-09-27T12:52:54;13.30;99.90
1546;DHT22;766;51.502;9.752;2022-09-27T12:55:46;13.30;99.90
1546;DHT22;766;51.502;9.752;2022-09-27T13:01:24;13.20;99.90
1546;DHT22;766;51.502;9.752;2022-09-27T13:04:09;12.90;99.90
1546;DHT22;766;51.502;9.752;2022-09-27T13:06:56;12.70;99.90
1546;DHT22;766;51.502;9.752;2022-09-27T13:09:50;12.50;99.90
1546;DHT22;766;51.502;9.752;2022-09-27T13:12:24;12.30;99.90
1546;DHT22;766;51.502;9.752;2022-09-27T13:14:59;12.10;99.90
1546;DHT22;766;51.502;9.752;2022-09-27T13:17:51;12.20;99.90
1546;DHT22;766;51.502;9.752;2022-09-27T13:20:42;12.30;99.90
1546;DHT22;766;51.502;9.752;2022-09-27T13:26:45;12.80;99.90
1546;DHT22;766;51.502;9.752;2022-09-27T13:29:29;12.70;99.90
1546;DHT22;766;51.502;9.752;2022-09-27T13:32:15;12.60;99.90
1546;DHT22;766;51.502;9.752;2022-09-27T13:34:50;12.60;99.90
1546;DHT22;766;51.502;9.752;2022-09-27T13:37:48;12.50;99.90
1546;DHT22;766;51.502;9.752;2022-09-27T13:40:30;12.30;99.90
1546;DHT22;766;51.502;9.752;2022-09-27T13:46:14;12.50;99.90
1546;DHT22;766;51.502;9.752;2022-09-27T13:48:48;12.40;99.90
1546;DHT22;766;51.502;9.752;2022-09-27T13:51:41;12.50;99.90
1546;DHT22;766;51.502;9.752;2022-09-27T13:54:35;12.40;99.90
1546;DHT22;766;51.502;9.752;2022-09-27T13:57:39;12.30;99.90
1546;DHT22;766;51.502;9.752;2022-09-27T14:00:13;12.30;99.90
1546;DHT22;766;51.502;9.752;2022-09-27T14:02:52;12.10;99.90
1546;DHT22;766;51.502;9.752;2022-09-27T14:05:26;11.90;99.90
1546;DHT22;766;51.502;9.752;2022-09-27T14:08:00;11.80;99.90
1546;DHT22;766;51.502;9.752;2022-09-27T14:10:30;11.80;99.90
1546;DHT22;766;51.502;9.752;2022-09-27T14:13:00;11.80;99.90
1546;DHT22;766;51.502;9.752;2022-09-27T14:15:31;11.50;99.90
1546;DHT22;766;51.502;9.752;2022-09-27T14:18:01;11.50;99.90
1546;DHT22;766;51.502;9.752;2022-09-27T14:20:35;11.30;99.90
1546;DHT22;766;51.502;9.752;2022-09-27T14:23:14;11.30;99.90
1546;DHT22;766;51.502;9.752;2022-09-27T14:25:46;11.40;99.90
1546;DHT22;766;51.502;9.752;2022-09-27T14:28:20;11.40;99.90
1546;DHT22;766;51.502;9.752;2022-09-27T14:31:04;11.40;99.90
1546;DHT22;766;51.502;9.752;2022-09-27T14:33:33;11.40;99.90
1546;DHT22;766;51.502;9.752;2022-09-27T14:36:06;11.40;99.90
1546;DHT22;766;51.502;9.752;2022-09-27T14:38:53;11.30;99.90
1546;DHT22;766;51.502;9.752;2022-09-27T14:41:25;11.30;99.90
1546;DHT22;766;51.502;9.752;2022-09-27T14:43:54;11.30;99.90
1546;DHT22;766;51.502;9.752;2022-09-27T14:46:25;11.40;99.90
1546;DHT22;766;51.502;9.752;2022-09-27T14:48:55;11.30;99.90
1546;DHT22;766;51.502;9.752;2022-09-27T14:51:29;11.30;99.90
1546;DHT22;766;51.502;9.752;2022-09-27T14:54:00;11.30;99.90
1546;DHT22;766;51.502;9.752;2022-09-27T14:56:33;11.30;99.90
1546;DHT22;766;51.502;9.752;2022-09-27T14:59:08;11.40;99.90
1546;DHT22;766;51.502;9.752;2022-09-27T15:01:38;11.60;99.90
1546;DHT22;766;51.502;9.752;2022-09-27T15:04:13;11.50;99.90
1546;DHT22;766;51.502;9.752;2022-09-27T15:06:43;11.40;99.90
1546;DHT22;766;51.502;9.752;2022-09-27T15:09:14;11.30;99.90
1546;DHT22;766;51.502;9.752;2022-09-27T15:11:44;11.30;99.90
1546;DHT22;766;51.502;9.752;2022-09-27T15:14:16;11.30;99.90
1546;DHT22;766;51.502;9.752;2022-09-27T15:16:48;11.30;99.90
1546;DHT22;766;51.502;9.752;2022-09-27T15:19:22;11.40;99.90
1546;DHT22;766;51.502;9.752;2022-09-27T15:21:52;11.10;99.90
1546;DHT22;766;51.502;9.752;2022-09-27T15:24:39;11.00;99.90
1546;DHT22;766;51.502;9.752;2022-09-27T15:27:15;11.00;99.90
1546;DHT22;766;51.502;9.752;2022-09-27T15:29:47;10.80;99.90
1546;DHT22;766;51.502;9.752;2022-09-27T15:32:19;10.80;99.90
1546;DHT22;766;51.502;9.752;2022-09-27T15:34:49;10.70;99.90
1546;DHT22;766;51.502;9.752;2022-09-27T15:37:27;10.70;99.90
1546;DHT22;766;51.502;9.752;2022-09-27T15:40:16;10.70;99.90
1546;DHT22;766;51.502;9.752;2022-09-27T15:42:57;10.50;99.90
1546;DHT22;766;51.502;9.752;2022-09-27T15:45:27;10.40;99.90
1546;DHT22;766;51.502;9.752;2022-09-27T15:48:05;10.50;99.90
1546;DHT22;766;51.502;9.752;2022-09-27T15:50:38;10.50;99.90
1546;DHT22;766;51.502;9.752;2022-09-27T15:53:08;10.40;99.90
1546;DHT22;766;51.502;9.752;2022-09-27T15:55:41;10.30;99.90
1546;DHT22;766;51.502;9.752;2022-09-27T15:58:13;10.30;99.90
1546;DHT22;766;51.502;9.752;2022-09-27T16:00:52;10.30;99.90
1546;DHT22;766;51.502;9.752;2022-09-27T16:03:22;10.30;99.90
1546;DHT22;766;51.502;9.752;2022-09-27T16:05:51;10.20;99.90
1546;DHT22;766;51.502;9.752;2022-09-27T16:08:21;10.10;99.90
1546;DHT22;766;51.502;9.752;2022-09-27T16:10:52;10.10;99.90
1546;DHT22;766;51.502;9.752;2022-09-27T16:13:22;10.10;99.90
1546;DHT22;766;51.502;9.752;2022-09-27T16:15:59;10.10;99.90
1546;DHT22;766;51.502;9.752;2022-09-27T16:18:30;10.10;99.90
1546;DHT22;766;51.502;9.752;2022-09-27T16:21:00;10.00;99.90
1546;DHT22;766;51.502;9.752;2022-09-27T16:23:33;10.00;99.90
1546;DHT22;766;51.502;9.752;2022-09-27T16:26:06;10.00;99.90
1546;DHT22;766;51.502;9.752;2022-09-27T16:28:36;9.90;99.90
1546;DHT22;766;51.502;9.752;2022-09-27T16:31:05;10.00;99.90
1546;DHT22;766;51.502;9.752;2022-09-27T16:33:36;9.90;99.90
1546;DHT22;766;51.502;9.752;2022-09-27T16:36:06;9.90;99.90
1546;DHT22;766;51.502;9.752;2022-09-27T16:38:41;9.90;99.90
1546;DHT22;766;51.502;9.752;2022-09-27T16:41:11;10.00;99.90
1546;DHT22;766;51.502;9.752;2022-09-27T16:43:40;10.00;99.90
1546;DHT22;766;51.502;9.752;2022-09-27T16:46:12;9.70;99.90
1546;DHT22;766;51.502;9.752;2022-09-27T16:48:42;9.60;99.90
1546;DHT22;766;51.502;9.752;2022-09-27T16:51:14;9.60;99.90
1546;DHT22;766;51.502;9.752;2022-09-27T16:54:03;9.70;99.90
1546;DHT22;766;51.502;9.752;2022-09-27T16:56:35;9.80;99.90
1546;DHT22;766;51.502;9.752;2022-09-27T16:59:06;9.80;99.90
1546;DHT22;766;51.502;9.752;2022-09-27T17:01:35;9.80;99.90
1546;DHT22;766;51.502;9.752;2022-09-27T17:04:05;9.90;99.90
1546;DHT22;766;51.502;9.752;2022-09-27T17:06:34;9.90;99.90
1546;DHT22;766;51.502;9.752;2022-09-27T17:09:03;10.00;99.90
1546;DHT22;766;51.502;9.752;2022-09-27T17:11:34;10.20;99.90
1546;DHT22;766;51.502;9.752;2022-09-27T17:14:03;10.10;99.90
1546;DHT22;766;51.502;9.752;2022-09-27T17:16:32;10.00;99.90
1546;DHT22;766;51.502;9.752;2022-09-27T17:19:00;9.90;99.90
1546;DHT22;766;51.502;9.752;2022-09-27T17:21:29;9.80;99.90
1546;DHT22;766;51.502;9.752;2022-09-27T17:24:05;9.80;99.90